sensor_id;sensor_type;location;lat;lon;timestamp;temperature;humidity
22290;DHT22;11313;50.116;8.424;2023-04-09T00:00:15;24.20;45.70
22290;DHT22;11313;50.116;8.424;2023-04-09T00:02:41;24.20;45.80
22290;DHT22;11313;50.116;8.424;2023-04-09T00:05:07;24.20;45.80
22290;DHT22;11313;50.116;8.424;2023-04-09T00:07:33;24.20;45.80
22290;DHT22;11313;50.116;8.424;2023-04-09T00:09:58;24.20;45.90
22290;DHT22;11313;50.116;8.424;2023-04-09T00:12:24;24.20;45.90
22290;DHT22;11313;50.116;8.424;2023-04-09T00:14:49;24.20;45.90
22290;DHT22;11313;50.116;8.424;2023-04-09T00:17:15;24.20;45.90
22290;DHT22;11313;50.116;8.424;2023-04-09T00:19:40;24.20;45.90
22290;DHT22;11313;50.116;8.424;2023-04-09T00:22:06;24.20;45.90
22290;DHT22;11313;50.116;8.424;2023-04-09T00:24:31;24.20;45.80
22290;DHT22;11313;50.116;8.424;2023-04-09T00:26:57;24.20;45.90
22290;DHT22;11313;50.116;8.424;2023-04-09T00:29:22;24.20;45.90
22290;DHT22;11313;50.116;8.424;2023-04-09T00:31:48;24.20;45.90
22290;DHT22;11313;50.116;8.424;2023-04-09T00:34:13;24.20;45.90
22290;DHT22;11313;50.116;8.424;2023-04-09T00:36:38;24.20;45.90
22290;DHT22;11313;50.116;8.424;2023-04-09T00:39:04;24.20;45.90
22290;DHT22;11313;50.116;8.424;2023-04-09T00:41:30;24.20;45.90
22290;DHT22;11313;50.116;8.424;2023-04-09T00:43:55;24.20;45.90
22290;DHT22;11313;50.116;8.424;2023-04-09T00:46:21;24.20;45.90
22290;DHT22;11313;50.116;8.424;2023-04-09T00:48:47;24.20;45.90
22290;DHT22;11313;50.116;8.424;2023-04-09T00:51:12;24.20;45.90
22290;DHT22;11313;50.116;8.424;2023-04-09T00:53:38;24.20;45.90
22290;DHT22;11313;50.116;8.424;2023-04-09T00:56:04;24.20;46.00
22290;DHT22;11313;50.116;8.424;2023-04-09T01:06:16;24.20;46.00
22290;DHT22;11313;50.116;8.424;2023-04-09T01:11:37;24.30;46.10
22290;DHT22;11313;50.116;8.424;2023-04-09T01:16:46;24.30;46.10
22290;DHT22;11313;50.116;8.424;2023-04-09T01:23:00;24.30;46.10
22290;DHT22;11313;50.116;8.424;2023-04-09T01:35:31;24.30;46.10
22290;DHT22;11313;50.116;8.424;2023-04-09T01:37:57;24.30;46.20
22290;DHT22;11313;50.116;8.424;2023-04-09T01:47:18;24.40;46.20
22290;DHT22;11313;50.116;8.424;2023-04-09T01:49:45;24.40;46.20
22290;DHT22;11313;50.116;8.424;2023-04-09T01:52:11;24.30;46.10
22290;DHT22;11313;50.116;8.424;2023-04-09T02:00:39;24.40;46.20
22290;DHT22;11313;50.116;8.424;2023-04-09T02:03:29;24.40;46.20
22290;DHT22;11313;50.116;8.424;2023-04-09T02:06:12;24.40;46.30
22290;DHT22;11313;50.116;8.424;2023-04-09T02:08:45;24.40;46.30
22290;DHT22;11313;50.116;8.424;2023-04-09T02:11:14;24.40;46.30
22290;DHT22;11313;50.116;8.424;2023-04-09T02:13:40;24.40;46.30
22290;DHT22;11313;50.116;8.424;2023-04-09T02:16:08;24.40;46.30
22290;DHT22;11313;50.116;8.424;2023-04-09T02:18:35;24.40;46.30
22290;DHT22;11313;50.116;8.424;2023-04-09T02:21:03;24.40;46.30
22290;DHT22;11313;50.116;8.424;2023-04-09T02:23:30;24.40;46.30
22290;DHT22;11313;50.116;8.424;2023-04-09T02:25:58;24.40;46.20
22290;DHT22;11313;50.116;8.424;2023-04-09T02:28:23;24.40;46.20
22290;DHT22;11313;50.116;8.424;2023-04-09T02:30:49;24.40;46.30
22290;DHT22;11313;50.116;8.424;2023-04-09T02:33:14;24.40;46.40
22290;DHT22;11313;50.116;8.424;2023-04-09T02:35:40;24.40;46.90
22290;DHT22;11313;50.116;8.424;2023-04-09T02:38:07;24.40;46.30
22290;DHT22;11313;50.116;8.424;2023-04-09T02:40:38;24.40;46.40
22290;DHT22;11313;50.116;8.424;2023-04-09T02:43:03;24.40;46.30
22290;DHT22;11313;50.116;8.424;2023-04-09T02:45:29;24.40;46.40
22290;DHT22;11313;50.116;8.424;2023-04-09T02:47:55;24.40;46.40
22290;DHT22;11313;50.116;8.424;2023-04-09T02:50:20;24.40;46.30
22290;DHT22;11313;50.116;8.424;2023-04-09T02:52:46;24.40;46.40
22290;DHT22;11313;50.116;8.424;2023-04-09T02:55:12;24.30;44.90
22290;DHT22;11313;50.116;8.424;2023-04-09T02:57:38;24.30;44.40
22290;DHT22;11313;50.116;8.424;2023-04-09T03:00:04;24.20;44.50
22290;DHT22;11313;50.116;8.424;2023-04-09T03:02:29;24.20;44.50
22290;DHT22;11313;50.116;8.424;2023-04-09T03:04:55;24.10;44.50
22290;DHT22;11313;50.116;8.424;2023-04-09T03:07:21;24.10;44.60
22290;DHT22;11313;50.116;8.424;2023-04-09T03:09:47;24.10;44.70
22290;DHT22;11313;50.116;8.424;2023-04-09T03:12:12;24.10;44.60
22290;DHT22;11313;50.116;8.424;2023-04-09T03:14:38;24.10;44.70
22290;DHT22;11313;50.116;8.424;2023-04-09T03:17:03;24.10;44.70
22290;DHT22;11313;50.116;8.424;2023-04-09T03:19:32;24.10;44.60
22290;DHT22;11313;50.116;8.424;2023-04-09T03:21:57;24.10;44.60
22290;DHT22;11313;50.116;8.424;2023-04-09T03:24:23;24.10;44.60
22290;DHT22;11313;50.116;8.424;2023-04-09T03:26:48;24.10;44.60
22290;DHT22;11313;50.116;8.424;2023-04-09T03:29:14;24.10;44.60
22290;DHT22;11313;50.116;8.424;2023-04-09T03:31:39;24.10;44.60
22290;DHT22;11313;50.116;8.424;2023-04-09T03:34:05;24.10;44.50
22290;DHT22;11313;50.116;8.424;2023-04-09T03:36:30;24.10;44.50
22290;DHT22;11313;50.116;8.424;2023-04-09T03:38:57;24.10;44.50
22290;DHT22;11313;50.116;8.424;2023-04-09T03:41:22;24.10;44.50
22290;DHT22;11313;50.116;8.424;2023-04-09T03:43:48;24.10;44.50
22290;DHT22;11313;50.116;8.424;2023-04-09T03:46:14;24.10;44.50
22290;DHT22;11313;50.116;8.424;2023-04-09T03:48:40;24.10;44.50
22290;DHT22;11313;50.116;8.424;2023-04-09T03:51:06;24.10;44.50
22290;DHT22;11313;50.116;8.424;2023-04-09T03:53:31;24.10;44.50
22290;DHT22;11313;50.116;8.424;2023-04-09T03:55:57;24.10;44.40
22290;DHT22;11313;50.116;8.424;2023-04-09T03:58:22;24.10;44.40
22290;DHT22;11313;50.116;8.424;2023-04-09T04:00:48;24.10;44.40
22290;DHT22;11313;50.116;8.424;2023-04-09T04:03:13;24.10;44.40
22290;DHT22;11313;50.116;8.424;2023-04-09T04:05:43;24.10;44.30
22290;DHT22;11313;50.116;8.424;2023-04-09T04:08:08;24.10;44.30
22290;DHT22;11313;50.116;8.424;2023-04-09T04:10:34;24.10;44.20
22290;DHT22;11313;50.116;8.424;2023-04-09T04:12:59;24.10;44.20
22290;DHT22;11313;50.116;8.424;2023-04-09T04:15:26;24.20;44.30
22290;DHT22;11313;50.116;8.424;2023-04-09T04:17:52;24.20;44.20
22290;DHT22;11313;50.116;8.424;2023-04-09T04:20:18;24.20;44.20
22290;DHT22;11313;50.116;8.424;2023-04-09T04:22:43;24.20;44.10
22290;DHT22;11313;50.116;8.424;2023-04-09T04:25:09;24.20;44.10
22290;DHT22;11313;50.116;8.424;2023-04-09T04:27:35;24.20;44.10
22290;DHT22;11313;50.116;8.424;2023-04-09T04:30:00;24.20;44.10
22290;DHT22;11313;50.116;8.424;2023-04-09T04:32:26;24.20;44.10
22290;DHT22;11313;50.116;8.424;2023-04-09T04:34:52;24.20;44.00
22290;DHT22;11313;50.116;8.424;2023-04-09T04:37:18;24.20;44.00
22290;DHT22;11313;50.116;8.424;2023-04-09T04:39:44;24.20;43.90
22290;DHT22;11313;50.116;8.424;2023-04-09T04:42:09;24.20;44.00
22290;DHT22;11313;50.116;8.424;2023-04-09T04:44:35;24.30;43.90
22290;DHT22;11313;50.116;8.424;2023-04-09T04:47:00;24.30;43.90
22290;DHT22;11313;50.116;8.424;2023-04-09T04:49:25;24.30;43.90
22290;DHT22;11313;50.116;8.424;2023-04-09T04:51:51;24.30;43.90
22290;DHT22;11313;50.116;8.424;2023-04-09T04:54:16;24.30;44.60
22290;DHT22;11313;50.116;8.424;2023-04-09T04:56:42;24.30;43.90
22290;DHT22;11313;50.116;8.424;2023-04-09T04:59:07;24.30;43.90
22290;DHT22;11313;50.116;8.424;2023-04-09T05:01:33;24.30;43.90
22290;DHT22;11313;50.116;8.424;2023-04-09T05:03:58;24.30;43.80
22290;DHT22;11313;50.116;8.424;2023-04-09T05:06:24;24.30;43.80
22290;DHT22;11313;50.116;8.424;2023-04-09T05:08:52;24.30;43.80
22290;DHT22;11313;50.116;8.424;2023-04-09T05:11:18;24.30;43.90
22290;DHT22;11313;50.116;8.424;2023-04-09T05:13:43;24.30;43.90
22290;DHT22;11313;50.116;8.424;2023-04-09T05:16:15;24.20;43.90
22290;DHT22;11313;50.116;8.424;2023-04-09T05:18:41;24.30;44.00
22290;DHT22;11313;50.116;8.424;2023-04-09T05:21:07;24.20;44.00
22290;DHT22;11313;50.116;8.424;2023-04-09T05:23:32;24.20;44.00
22290;DHT22;11313;50.116;8.424;2023-04-09T05:25:58;24.20;43.90
22290;DHT22;11313;50.116;8.424;2023-04-09T05:28:23;24.30;44.00
22290;DHT22;11313;50.116;8.424;2023-04-09T05:30:49;24.30;44.00
22290;DHT22;11313;50.116;8.424;2023-04-09T05:33:14;24.30;43.90
22290;DHT22;11313;50.116;8.424;2023-04-09T05:35:40;24.20;43.80
22290;DHT22;11313;50.116;8.424;2023-04-09T05:38:06;24.20;43.80
22290;DHT22;11313;50.116;8.424;2023-04-09T05:40:31;24.20;43.80
22290;DHT22;11313;50.116;8.424;2023-04-09T05:42:57;24.20;43.90
22290;DHT22;11313;50.116;8.424;2023-04-09T05:45:22;24.20;43.90
22290;DHT22;11313;50.116;8.424;2023-04-09T05:47:48;24.20;44.00
22290;DHT22;11313;50.116;8.424;2023-04-09T05:50:13;24.20;44.00
22290;DHT22;11313;50.116;8.424;2023-04-09T05:52:39;24.20;44.10
22290;DHT22;11313;50.116;8.424;2023-04-09T05:55:05;24.20;44.10
22290;DHT22;11313;50.116;8.424;2023-04-09T05:57:31;24.20;43.90
22290;DHT22;11313;50.116;8.424;2023-04-09T05:59:56;24.20;43.70
22290;DHT22;11313;50.116;8.424;2023-04-09T06:02:23;24.20;43.60
22290;DHT22;11313;50.116;8.424;2023-04-09T06:04:49;24.20;43.40
22290;DHT22;11313;50.116;8.424;2023-04-09T06:07:15;24.20;43.50
22290;DHT22;11313;50.116;8.424;2023-04-09T06:09:40;24.20;43.50
22290;DHT22;11313;50.116;8.424;2023-04-09T06:12:08;24.20;43.40
22290;DHT22;11313;50.116;8.424;2023-04-09T06:14:34;24.20;43.30
22290;DHT22;11313;50.116;8.424;2023-04-09T06:16:59;24.10;43.20
22290;DHT22;11313;50.116;8.424;2023-04-09T06:19:25;24.10;43.10
22290;DHT22;11313;50.116;8.424;2023-04-09T06:21:50;24.10;43.10
22290;DHT22;11313;50.116;8.424;2023-04-09T06:24:16;24.10;43.00
22290;DHT22;11313;50.116;8.424;2023-04-09T06:26:41;24.10;43.00
22290;DHT22;11313;50.116;8.424;2023-04-09T06:29:07;24.10;42.90
22290;DHT22;11313;50.116;8.424;2023-04-09T06:31:32;24.10;42.80
22290;DHT22;11313;50.116;8.424;2023-04-09T06:33:58;24.10;42.90
22290;DHT22;11313;50.116;8.424;2023-04-09T06:36:24;24.10;42.70
22290;DHT22;11313;50.116;8.424;2023-04-09T06:38:50;24.00;42.60
22290;DHT22;11313;50.116;8.424;2023-04-09T06:41:19;24.00;42.60
22290;DHT22;11313;50.116;8.424;2023-04-09T06:43:45;24.00;42.60
22290;DHT22;11313;50.116;8.424;2023-04-09T06:46:10;24.00;42.50
22290;DHT22;11313;50.116;8.424;2023-04-09T06:48:37;24.00;42.40
22290;DHT22;11313;50.116;8.424;2023-04-09T06:51:03;24.00;42.50
22290;DHT22;11313;50.116;8.424;2023-04-09T06:53:30;24.00;42.40
22290;DHT22;11313;50.116;8.424;2023-04-09T06:55:56;24.00;42.30
22290;DHT22;11313;50.116;8.424;2023-04-09T06:58:21;24.00;42.30
22290;DHT22;11313;50.116;8.424;2023-04-09T07:00:47;24.00;42.30
22290;DHT22;11313;50.116;8.424;2023-04-09T07:03:13;24.10;42.20
22290;DHT22;11313;50.116;8.424;2023-04-09T07:05:39;24.10;42.30
22290;DHT22;11313;50.116;8.424;2023-04-09T07:08:04;24.10;42.20
22290;DHT22;11313;50.116;8.424;2023-04-09T07:10:30;24.10;42.20
22290;DHT22;11313;50.116;8.424;2023-04-09T07:12:55;24.10;42.10
22290;DHT22;11313;50.116;8.424;2023-04-09T07:15:21;24.10;42.00
22290;DHT22;11313;50.116;8.424;2023-04-09T07:17:46;24.10;42.00
22290;DHT22;11313;50.116;8.424;2023-04-09T07:20:12;24.10;41.90
22290;DHT22;11313;50.116;8.424;2023-04-09T07:22:38;24.10;42.00
22290;DHT22;11313;50.116;8.424;2023-04-09T07:25:03;24.10;42.00
22290;DHT22;11313;50.116;8.424;2023-04-09T07:27:29;24.10;41.90
22290;DHT22;11313;50.116;8.424;2023-04-09T07:29:58;24.10;41.90
22290;DHT22;11313;50.116;8.424;2023-04-09T07:32:25;24.10;41.90
22290;DHT22;11313;50.116;8.424;2023-04-09T07:34:53;24.10;41.90
22290;DHT22;11313;50.116;8.424;2023-04-09T07:37:19;24.10;41.90
22290;DHT22;11313;50.116;8.424;2023-04-09T07:39:45;24.10;41.90
22290;DHT22;11313;50.116;8.424;2023-04-09T07:42:11;24.10;41.90
22290;DHT22;11313;50.116;8.424;2023-04-09T07:44:37;24.20;42.00
22290;DHT22;11313;50.116;8.424;2023-04-09T07:47:03;24.20;42.00
22290;DHT22;11313;50.116;8.424;2023-04-09T07:49:29;24.20;42.00
22290;DHT22;11313;50.116;8.424;2023-04-09T07:51:56;24.20;42.00
22290;DHT22;11313;50.116;8.424;2023-04-09T07:54:22;24.20;42.00
22290;DHT22;11313;50.116;8.424;2023-04-09T07:56:47;24.30;42.10
22290;DHT22;11313;50.116;8.424;2023-04-09T07:59:13;24.30;42.20
22290;DHT22;11313;50.116;8.424;2023-04-09T08:01:40;24.30;43.00
22290;DHT22;11313;50.116;8.424;2023-04-09T08:04:06;24.30;42.40
22290;DHT22;11313;50.116;8.424;2023-04-09T08:06:31;24.40;42.40
22290;DHT22;11313;50.116;8.424;2023-04-09T08:08:57;24.40;42.40
22290;DHT22;11313;50.116;8.424;2023-04-09T08:11:22;24.40;42.40
22290;DHT22;11313;50.116;8.424;2023-04-09T08:13:51;24.40;42.30
22290;DHT22;11313;50.116;8.424;2023-04-09T08:16:17;24.40;42.40
22290;DHT22;11313;50.116;8.424;2023-04-09T08:18:42;24.40;42.40
22290;DHT22;11313;50.116;8.424;2023-04-09T08:21:08;24.40;42.40
22290;DHT22;11313;50.116;8.424;2023-04-09T08:23:33;24.40;42.30
22290;DHT22;11313;50.116;8.424;2023-04-09T08:25:59;24.50;42.30
22290;DHT22;11313;50.116;8.424;2023-04-09T08:28:24;24.50;42.30
22290;DHT22;11313;50.116;8.424;2023-04-09T08:30:50;24.40;42.50
22290;DHT22;11313;50.116;8.424;2023-04-09T08:33:16;24.50;42.30
22290;DHT22;11313;50.116;8.424;2023-04-09T08:35:41;24.50;42.30
22290;DHT22;11313;50.116;8.424;2023-04-09T08:38:07;24.50;42.30
22290;DHT22;11313;50.116;8.424;2023-04-09T08:40:34;24.50;42.30
22290;DHT22;11313;50.116;8.424;2023-04-09T08:43:04;24.50;42.30
22290;DHT22;11313;50.116;8.424;2023-04-09T08:45:29;24.50;42.30
22290;DHT22;11313;50.116;8.424;2023-04-09T08:47:55;24.50;42.30
22290;DHT22;11313;50.116;8.424;2023-04-09T08:50:26;24.50;42.30
22290;DHT22;11313;50.116;8.424;2023-04-09T08:52:52;24.50;42.30
22290;DHT22;11313;50.116;8.424;2023-04-09T08:55:18;24.50;42.30
22290;DHT22;11313;50.116;8.424;2023-04-09T08:57:43;24.50;42.30
22290;DHT22;11313;50.116;8.424;2023-04-09T09:00:09;24.50;42.30
22290;DHT22;11313;50.116;8.424;2023-04-09T09:02:35;24.50;42.20
22290;DHT22;11313;50.116;8.424;2023-04-09T09:05:01;24.50;42.10
22290;DHT22;11313;50.116;8.424;2023-04-09T09:07:27;24.50;42.00
22290;DHT22;11313;50.116;8.424;2023-04-09T09:10:00;24.50;41.90
22290;DHT22;11313;50.116;8.424;2023-04-09T09:12:38;24.50;41.80
22290;DHT22;11313;50.116;8.424;2023-04-09T09:15:05;24.50;41.60
22290;DHT22;11313;50.116;8.424;2023-04-09T09:17:53;24.50;41.50
22290;DHT22;11313;50.116;8.424;2023-04-09T09:20:19;24.50;41.50
22290;DHT22;11313;50.116;8.424;2023-04-09T09:22:53;24.50;41.50
22290;DHT22;11313;50.116;8.424;2023-04-09T09:25:19;24.50;41.30
22290;DHT22;11313;50.116;8.424;2023-04-09T09:27:51;24.50;41.20
22290;DHT22;11313;50.116;8.424;2023-04-09T09:30:21;24.50;41.10
22290;DHT22;11313;50.116;8.424;2023-04-09T09:32:48;24.50;41.00
22290;DHT22;11313;50.116;8.424;2023-04-09T09:35:15;24.40;40.90
22290;DHT22;11313;50.116;8.424;2023-04-09T09:37:41;24.40;40.80
22290;DHT22;11313;50.116;8.424;2023-04-09T09:40:07;24.40;40.70
22290;DHT22;11313;50.116;8.424;2023-04-09T09:42:33;24.40;40.70
22290;DHT22;11313;50.116;8.424;2023-04-09T09:44:59;24.40;40.60
22290;DHT22;11313;50.116;8.424;2023-04-09T09:47:25;24.40;40.40
22290;DHT22;11313;50.116;8.424;2023-04-09T09:49:53;24.50;40.40
22290;DHT22;11313;50.116;8.424;2023-04-09T09:52:24;24.50;40.30
22290;DHT22;11313;50.116;8.424;2023-04-09T09:54:52;24.50;40.20
22290;DHT22;11313;50.116;8.424;2023-04-09T09:57:19;24.50;40.10
22290;DHT22;11313;50.116;8.424;2023-04-09T09:59:50;24.40;39.90
22290;DHT22;11313;50.116;8.424;2023-04-09T10:02:19;24.40;40.10
22290;DHT22;11313;50.116;8.424;2023-04-09T10:04:48;24.40;40.20
22290;DHT22;11313;50.116;8.424;2023-04-09T10:07:14;24.40;40.20
22290;DHT22;11313;50.116;8.424;2023-04-09T10:09:42;24.50;40.30
22290;DHT22;11313;50.116;8.424;2023-04-09T10:12:09;24.40;40.30
22290;DHT22;11313;50.116;8.424;2023-04-09T10:14:37;24.40;40.40
22290;DHT22;11313;50.116;8.424;2023-04-09T10:17:03;24.40;40.50
22290;DHT22;11313;50.116;8.424;2023-04-09T10:19:30;24.40;40.50
22290;DHT22;11313;50.116;8.424;2023-04-09T10:22:04;24.40;40.60
22290;DHT22;11313;50.116;8.424;2023-04-09T10:24:32;24.40;40.70
22290;DHT22;11313;50.116;8.424;2023-04-09T10:27:12;24.50;40.70
22290;DHT22;11313;50.116;8.424;2023-04-09T10:29:45;24.50;40.80
22290;DHT22;11313;50.116;8.424;2023-04-09T10:32:12;24.50;40.90
22290;DHT22;11313;50.116;8.424;2023-04-09T10:34:42;24.50;41.00
22290;DHT22;11313;50.116;8.424;2023-04-09T10:37:12;24.50;41.10
22290;DHT22;11313;50.116;8.424;2023-04-09T10:39:40;24.50;41.20
22290;DHT22;11313;50.116;8.424;2023-04-09T10:42:13;24.50;41.30
22290;DHT22;11313;50.116;8.424;2023-04-09T10:44:39;24.50;41.30
22290;DHT22;11313;50.116;8.424;2023-04-09T10:47:08;24.50;41.40
22290;DHT22;11313;50.116;8.424;2023-04-09T10:49:38;24.40;41.30
22290;DHT22;11313;50.116;8.424;2023-04-09T10:52:09;24.50;41.50
22290;DHT22;11313;50.116;8.424;2023-04-09T10:54:45;24.50;41.50
22290;DHT22;11313;50.116;8.424;2023-04-09T10:57:19;24.50;41.50
22290;DHT22;11313;50.116;8.424;2023-04-09T10:59:50;24.50;41.50
22290;DHT22;11313;50.116;8.424;2023-04-09T11:05:17;24.50;41.50
22290;DHT22;11313;50.116;8.424;2023-04-09T11:08:06;24.40;41.50
22290;DHT22;11313;50.116;8.424;2023-04-09T11:10:31;24.40;41.50
22290;DHT22;11313;50.116;8.424;2023-04-09T11:12:57;24.40;41.50
22290;DHT22;11313;50.116;8.424;2023-04-09T11:15:22;24.40;41.50
22290;DHT22;11313;50.116;8.424;2023-04-09T11:17:49;24.40;41.50
22290;DHT22;11313;50.116;8.424;2023-04-09T11:20:20;24.40;41.60
22290;DHT22;11313;50.116;8.424;2023-04-09T11:22:48;24.40;41.60
22290;DHT22;11313;50.116;8.424;2023-04-09T11:25:32;24.40;41.60
22290;DHT22;11313;50.116;8.424;2023-04-09T11:28:01;24.40;41.60
22290;DHT22;11313;50.116;8.424;2023-04-09T11:30:27;24.30;41.60
22290;DHT22;11313;50.116;8.424;2023-04-09T11:32:53;24.30;41.60
22290;DHT22;11313;50.116;8.424;2023-04-09T11:35:20;24.30;41.60
22290;DHT22;11313;50.116;8.424;2023-04-09T11:37:46;24.30;41.70
22290;DHT22;11313;50.116;8.424;2023-04-09T11:40:20;24.30;41.70
22290;DHT22;11313;50.116;8.424;2023-04-09T11:42:52;24.30;41.70
22290;DHT22;11313;50.116;8.424;2023-04-09T11:45:21;24.30;41.60
22290;DHT22;11313;50.116;8.424;2023-04-09T11:47:47;24.30;42.30
22290;DHT22;11313;50.116;8.424;2023-04-09T11:50:14;24.40;41.60
22290;DHT22;11313;50.116;8.424;2023-04-09T11:52:41;24.40;41.60
22290;DHT22;11313;50.116;8.424;2023-04-09T11:55:08;24.40;41.60
22290;DHT22;11313;50.116;8.424;2023-04-09T11:57:45;24.40;41.60
22290;DHT22;11313;50.116;8.424;2023-04-09T12:00:15;24.40;41.60
22290;DHT22;11313;50.116;8.424;2023-04-09T12:02:44;24.40;41.50
22290;DHT22;11313;50.116;8.424;2023-04-09T12:05:12;24.40;41.60
22290;DHT22;11313;50.116;8.424;2023-04-09T12:07:44;24.40;41.60
22290;DHT22;11313;50.116;8.424;2023-04-09T12:10:10;24.40;41.60
22290;DHT22;11313;50.116;8.424;2023-04-09T12:12:42;24.40;41.60
22290;DHT22;11313;50.116;8.424;2023-04-09T12:15:20;24.40;41.60
22290;DHT22;11313;50.116;8.424;2023-04-09T12:17:50;24.40;41.60
22290;DHT22;11313;50.116;8.424;2023-04-09T12:20:32;24.40;41.60
22290;DHT22;11313;50.116;8.424;2023-04-09T12:22:59;24.40;41.60
22290;DHT22;11313;50.116;8.424;2023-04-09T12:25:26;24.40;41.60
22290;DHT22;11313;50.116;8.424;2023-04-09T12:27:51;24.40;41.60
22290;DHT22;11313;50.116;8.424;2023-04-09T12:30:18;24.40;41.70
22290;DHT22;11313;50.116;8.424;2023-04-09T12:32:44;24.40;42.30
22290;DHT22;11313;50.116;8.424;2023-04-09T12:35:10;24.40;41.60
22290;DHT22;11313;50.116;8.424;2023-04-09T12:37:36;24.40;41.70
22290;DHT22;11313;50.116;8.424;2023-04-09T12:40:01;24.40;41.70
22290;DHT22;11313;50.116;8.424;2023-04-09T12:42:28;24.40;41.70
22290;DHT22;11313;50.116;8.424;2023-04-09T12:44:53;24.40;41.70
22290;DHT22;11313;50.116;8.424;2023-04-09T12:47:19;24.40;41.70
22290;DHT22;11313;50.116;8.424;2023-04-09T12:49:44;24.40;41.90
22290;DHT22;11313;50.116;8.424;2023-04-09T12:52:11;24.30;41.90
22290;DHT22;11313;50.116;8.424;2023-04-09T12:54:37;24.30;42.30
22290;DHT22;11313;50.116;8.424;2023-04-09T12:57:04;24.30;42.10
22290;DHT22;11313;50.116;8.424;2023-04-09T12:59:30;24.30;42.10
22290;DHT22;11313;50.116;8.424;2023-04-09T13:01:55;24.30;42.10
22290;DHT22;11313;50.116;8.424;2023-04-09T13:04:21;24.30;42.20
22290;DHT22;11313;50.116;8.424;2023-04-09T13:06:46;24.20;42.10
22290;DHT22;11313;50.116;8.424;2023-04-09T13:09:12;24.30;42.20
22290;DHT22;11313;50.116;8.424;2023-04-09T13:11:38;24.20;42.10
22290;DHT22;11313;50.116;8.424;2023-04-09T13:14:04;24.20;42.10
22290;DHT22;11313;50.116;8.424;2023-04-09T13:16:29;24.20;42.10
22290;DHT22;11313;50.116;8.424;2023-04-09T13:18:55;24.20;42.80
22290;DHT22;11313;50.116;8.424;2023-04-09T13:21:21;24.20;42.10
22290;DHT22;11313;50.116;8.424;2023-04-09T13:23:46;24.20;42.10
22290;DHT22;11313;50.116;8.424;2023-04-09T13:26:12;24.20;42.10
22290;DHT22;11313;50.116;8.424;2023-04-09T13:28:37;24.20;42.00
22290;DHT22;11313;50.116;8.424;2023-04-09T13:31:04;24.30;42.00
22290;DHT22;11313;50.116;8.424;2023-04-09T13:33:30;24.30;42.00
22290;DHT22;11313;50.116;8.424;2023-04-09T13:35:56;24.40;42.00
22290;DHT22;11313;50.116;8.424;2023-04-09T13:38:21;24.30;42.00
22290;DHT22;11313;50.116;8.424;2023-04-09T13:40:47;24.20;41.90
22290;DHT22;11313;50.116;8.424;2023-04-09T13:43:13;24.30;42.00
22290;DHT22;11313;50.116;8.424;2023-04-09T13:45:38;24.30;42.00
22290;DHT22;11313;50.116;8.424;2023-04-09T13:48:05;24.30;42.00
22290;DHT22;11313;50.116;8.424;2023-04-09T13:50:31;24.30;42.00
22290;DHT22;11313;50.116;8.424;2023-04-09T13:52:57;24.30;42.00
22290;DHT22;11313;50.116;8.424;2023-04-09T13:55:23;24.30;42.10
22290;DHT22;11313;50.116;8.424;2023-04-09T13:57:48;24.30;42.10
22290;DHT22;11313;50.116;8.424;2023-04-09T14:00:14;24.30;42.10
22290;DHT22;11313;50.116;8.424;2023-04-09T14:02:39;24.30;42.00
22290;DHT22;11313;50.116;8.424;2023-04-09T14:05:05;24.30;42.00
22290;DHT22;11313;50.116;8.424;2023-04-09T14:07:31;24.30;42.00
22290;DHT22;11313;50.116;8.424;2023-04-09T14:09:57;24.30;42.00
22290;DHT22;11313;50.116;8.424;2023-04-09T14:12:22;24.30;42.10
22290;DHT22;11313;50.116;8.424;2023-04-09T14:14:48;24.20;42.00
22290;DHT22;11313;50.116;8.424;2023-04-09T14:17:14;24.30;42.10
22290;DHT22;11313;50.116;8.424;2023-04-09T14:19:39;24.30;42.10
22290;DHT22;11313;50.116;8.424;2023-04-09T14:22:05;24.30;42.00
22290;DHT22;11313;50.116;8.424;2023-04-09T14:24:34;24.30;42.10
22290;DHT22;11313;50.116;8.424;2023-04-09T14:27:05;24.20;42.00
22290;DHT22;11313;50.116;8.424;2023-04-09T14:29:30;24.20;42.00
22290;DHT22;11313;50.116;8.424;2023-04-09T14:31:56;24.20;42.70
22290;DHT22;11313;50.116;8.424;2023-04-09T14:34:22;24.20;42.10
22290;DHT22;11313;50.116;8.424;2023-04-09T14:36:47;24.20;42.10
22290;DHT22;11313;50.116;8.424;2023-04-09T14:39:13;24.30;42.10
22290;DHT22;11313;50.116;8.424;2023-04-09T14:41:38;24.20;42.10
22290;DHT22;11313;50.116;8.424;2023-04-09T14:44:04;24.20;42.10
22290;DHT22;11313;50.116;8.424;2023-04-09T14:46:29;24.20;42.10
22290;DHT22;11313;50.116;8.424;2023-04-09T14:48:55;24.20;42.70
22290;DHT22;11313;50.116;8.424;2023-04-09T14:51:20;24.20;42.10
22290;DHT22;11313;50.116;8.424;2023-04-09T14:53:46;24.20;42.10
22290;DHT22;11313;50.116;8.424;2023-04-09T14:56:11;24.20;42.10
22290;DHT22;11313;50.116;8.424;2023-04-09T14:58:37;24.20;42.10
22290;DHT22;11313;50.116;8.424;2023-04-09T15:01:03;24.20;42.20
22290;DHT22;11313;50.116;8.424;2023-04-09T15:03:28;24.20;42.10
22290;DHT22;11313;50.116;8.424;2023-04-09T15:05:54;24.20;42.10
22290;DHT22;11313;50.116;8.424;2023-04-09T15:08:21;24.20;42.10
22290;DHT22;11313;50.116;8.424;2023-04-09T15:10:46;24.20;42.10
22290;DHT22;11313;50.116;8.424;2023-04-09T15:13:15;24.20;42.20
22290;DHT22;11313;50.116;8.424;2023-04-09T15:15:41;24.20;42.20
22290;DHT22;11313;50.116;8.424;2023-04-09T15:18:08;24.20;42.20
22290;DHT22;11313;50.116;8.424;2023-04-09T15:20:38;24.20;42.90
22290;DHT22;11313;50.116;8.424;2023-04-09T15:23:03;24.20;42.20
22290;DHT22;11313;50.116;8.424;2023-04-09T15:25:29;24.20;42.20
22290;DHT22;11313;50.116;8.424;2023-04-09T15:27:55;24.20;42.20
22290;DHT22;11313;50.116;8.424;2023-04-09T15:30:20;24.20;42.20
22290;DHT22;11313;50.116;8.424;2023-04-09T15:32:46;24.20;42.10
22290;DHT22;11313;50.116;8.424;2023-04-09T15:35:12;24.20;42.20
22290;DHT22;11313;50.116;8.424;2023-04-09T15:37:40;24.20;42.10
22290;DHT22;11313;50.116;8.424;2023-04-09T15:40:06;24.20;42.10
22290;DHT22;11313;50.116;8.424;2023-04-09T15:42:32;24.20;42.10
22290;DHT22;11313;50.116;8.424;2023-04-09T15:44:57;24.20;42.00
22290;DHT22;11313;50.116;8.424;2023-04-09T15:47:23;24.20;42.10
22290;DHT22;11313;50.116;8.424;2023-04-09T15:49:49;24.00;41.90
22290;DHT22;11313;50.116;8.424;2023-04-09T15:52:14;24.20;42.00
22290;DHT22;11313;50.116;8.424;2023-04-09T15:54:40;24.10;42.00
22290;DHT22;11313;50.116;8.424;2023-04-09T15:57:05;24.10;42.00
22290;DHT22;11313;50.116;8.424;2023-04-09T15:59:31;24.10;42.00
22290;DHT22;11313;50.116;8.424;2023-04-09T16:01:56;24.10;42.00
22290;DHT22;11313;50.116;8.424;2023-04-09T16:04:25;24.10;42.10
22290;DHT22;11313;50.116;8.424;2023-04-09T16:06:53;24.10;42.20
22290;DHT22;11313;50.116;8.424;2023-04-09T16:09:20;24.10;42.20